Terminal Aerodrome Forecast
Issued by NWS Austin/San Antonio, TX

Current Version | Previous Version | Text Only | Print | Product List | Glossary On
Versions: 1 2 3 4 5 6 7 8 9 10 11 12
787
FTUS44 KEWX 061134
TAFAUS
TAF
KAUS 061134Z 0612/0718 25010KT P6SM SKC
     FM061400 33015G25KT P6SM FEW050
     FM070100 36005KT P6SM SKC=

USA.gov is the U.S. government's official web portal to all federal, state and local government web resources and services.